createdAt,value
2022-10-14T00:01:20.904Z,36.92
2022-10-14T00:03:50.391Z,34.20
2022-10-14T00:06:25.078Z,32.65
2022-10-14T00:08:54.031Z,33.05
2022-10-14T00:11:24.909Z,28.80
2022-10-14T00:13:56.066Z,39.72
2022-10-14T00:16:26.218Z,36.85
2022-10-14T00:18:54.622Z,30.65
2022-10-14T00:21:24.792Z,33.78
2022-10-14T00:23:53.077Z,29.17
2022-10-14T00:26:23.371Z,31.70
2022-10-14T00:28:52.941Z,29.45
2022-10-14T00:31:21.895Z,33.83
2022-10-14T00:33:50.962Z,29.42
2022-10-14T00:36:22.484Z,28.80
2022-10-14T00:38:53.136Z,33.00
2022-10-14T00:41:24.688Z,31.92
2022-10-14T00:43:59.032Z,32.55
2022-10-14T00:46:30.695Z,31.17
2022-10-14T00:49:08.947Z,30.17
2022-10-14T00:51:40.139Z,38.00
2022-10-14T00:54:11.326Z,33.42
2022-10-14T00:56:39.962Z,27.35
2022-10-14T00:59:12.313Z,29.30
2022-10-14T01:01:40.767Z,32.45
2022-10-14T01:04:08.968Z,32.58
2022-10-14T01:06:45.506Z,37.88
2022-10-14T01:09:27.420Z,31.35
2022-10-14T01:12:28.020Z,38.70
2022-10-14T01:15:08.447Z,39.70
2022-10-14T01:17:47.626Z,33.58
2022-10-14T01:20:42.821Z,38.38
2022-10-14T01:23:42.982Z,32.30
2022-10-14T01:26:27.399Z,32.88
2022-10-14T01:29:05.890Z,37.72
2022-10-14T01:31:39.658Z,38.92
2022-10-14T01:34:13.397Z,47.95
2022-10-14T01:36:48.511Z,37.15
2022-10-14T01:39:23.023Z,45.45
2022-10-14T01:41:56.458Z,39.78
2022-10-14T01:44:28.188Z,41.20
2022-10-14T01:47:00.258Z,37.15
2022-10-14T01:49:33.974Z,43.30
2022-10-14T01:52:06.903Z,42.40
2022-10-14T01:54:38.842Z,49.78
2022-10-14T01:57:11.359Z,58.75
2022-10-14T01:59:41.516Z,68.78
2022-10-14T02:02:12.749Z,50.92
2022-10-14T02:04:42.947Z,52.05
2022-10-14T02:07:17.276Z,46.42
2022-10-14T02:09:55.657Z,50.30
2022-10-14T02:12:39.741Z,56.33
2022-10-14T02:15:16.755Z,44.13
2022-10-14T02:21:25.689Z,56.75
2022-10-14T02:24:21.442Z,69.18
2022-10-14T02:26:51.920Z,66.10
2022-10-14T02:29:23.148Z,60.72
2022-10-14T02:31:57.979Z,56.33
2022-10-14T02:34:28.094Z,68.13
2022-10-14T02:36:59.031Z,53.17
2022-10-14T02:39:31.887Z,74.00
2022-10-14T02:42:00.263Z,64.65
2022-10-14T02:44:28.679Z,78.20
2022-10-14T02:46:57.246Z,96.43
2022-10-14T02:49:29.478Z,86.95
2022-10-14T02:51:59.551Z,88.97
2022-10-14T02:54:28.011Z,91.88
2022-10-14T02:56:56.415Z,89.85
2022-10-14T02:59:26.104Z,88.80
2022-10-14T03:01:54.421Z,89.38
2022-10-14T03:04:23.381Z,89.22
2022-10-14T03:06:54.005Z,82.95
2022-10-14T03:09:26.060Z,90.07
2022-10-14T03:11:55.567Z,86.15
2022-10-14T03:14:25.579Z,91.40
2022-10-14T03:16:54.379Z,93.50
2022-10-14T03:19:25.417Z,88.70
2022-10-14T03:21:56.632Z,95.20
2022-10-14T03:24:26.465Z,101.55
2022-10-14T03:27:13.524Z,91.28
2022-10-14T03:29:43.018Z,87.43
2022-10-14T03:32:18.710Z,92.80
2022-10-14T03:35:06.794Z,85.70
2022-10-14T03:37:35.973Z,92.80
2022-10-14T03:40:07.842Z,90.28
2022-10-14T03:42:37.129Z,88.10
2022-10-14T03:45:06.647Z,86.82
2022-10-14T03:47:35.250Z,82.65
2022-10-14T03:50:05.083Z,88.63
2022-10-14T03:52:44.855Z,88.93
2022-10-14T03:55:24.866Z,91.55
2022-10-14T03:57:53.811Z,83.93
2022-10-14T04:00:22.400Z,78.22
2022-10-14T04:03:01.299Z,95.55
2022-10-14T04:05:37.286Z,87.22
2022-10-14T04:08:19.502Z,92.90
2022-10-14T04:10:56.503Z,85.00
2022-10-14T04:13:26.498Z,89.75
2022-10-14T04:15:55.239Z,76.82
2022-10-14T04:18:35.104Z,90.50
2022-10-14T04:21:07.117Z,75.30
2022-10-14T04:23:37.093Z,86.50
2022-10-14T04:26:14.941Z,87.03
2022-10-14T04:28:45.127Z,98.28
2022-10-14T04:31:29.112Z,81.40
2022-10-14T04:34:02.504Z,84.88
2022-10-14T04:36:38.714Z,80.60
2022-10-14T04:39:20.408Z,92.28
2022-10-14T04:41:52.164Z,85.60
2022-10-14T04:44:22.584Z,77.85
2022-10-14T04:46:54.882Z,76.82
2022-10-14T04:49:26.421Z,70.95
2022-10-14T04:52:04.066Z,80.22
2022-10-14T04:54:41.610Z,70.32
2022-10-14T04:57:11.436Z,62.38
2022-10-14T04:59:40.854Z,72.07
2022-10-14T05:02:44.455Z,70.40
2022-10-14T05:05:14.991Z,60.58
2022-10-14T05:07:45.364Z,68.63
2022-10-14T05:10:28.933Z,72.75
2022-10-14T05:12:59.074Z,59.83
2022-10-14T05:15:31.635Z,65.38
2022-10-14T05:18:13.618Z,69.43
2022-10-14T05:20:56.293Z,70.50
2022-10-14T05:23:26.262Z,67.75
2022-10-14T05:25:55.971Z,67.20
2022-10-14T05:28:26.508Z,77.53
2022-10-14T05:30:56.783Z,66.65
2022-10-14T05:33:25.544Z,67.93
2022-10-14T05:35:59.065Z,67.68
2022-10-14T05:38:32.743Z,61.90
2022-10-14T05:41:01.068Z,63.65
2022-10-14T05:43:32.609Z,66.20
2022-10-14T05:46:02.529Z,69.18
2022-10-14T05:48:35.300Z,62.28
2022-10-14T05:51:03.828Z,75.43
2022-10-14T05:53:35.836Z,65.95
2022-10-14T05:56:11.088Z,63.60
2022-10-14T05:58:42.907Z,60.30
2022-10-14T06:01:12.594Z,64.82
2022-10-14T06:03:43.175Z,59.97
2022-10-14T06:06:14.415Z,57.67
2022-10-14T06:08:43.384Z,54.05
2022-10-14T06:11:11.991Z,66.68
2022-10-14T06:13:40.855Z,66.57
2022-10-14T06:16:12.150Z,71.03
2022-10-14T06:18:40.653Z,62.35
2022-10-14T06:21:09.198Z,55.55
2022-10-14T06:23:37.645Z,69.82
2022-10-14T06:26:07.582Z,60.17
2022-10-14T06:28:36.217Z,62.08
2022-10-14T06:31:32.435Z,52.50
2022-10-14T06:34:01.173Z,60.92
2022-10-14T06:36:29.551Z,61.17
2022-10-14T06:38:57.828Z,52.78
2022-10-14T06:41:26.958Z,54.90
2022-10-14T06:43:55.330Z,61.72
2022-10-14T06:46:25.361Z,50.30
2022-10-14T06:48:55.081Z,55.75
2022-10-14T06:51:23.457Z,57.17
2022-10-14T06:53:51.894Z,59.03
2022-10-14T06:56:20.216Z,54.08
2022-10-14T06:58:49.096Z,66.57
2022-10-14T07:01:17.469Z,60.55
2022-10-14T07:03:50.565Z,58.72
2022-10-14T07:06:22.645Z,53.00
2022-10-14T07:08:51.170Z,52.33
2022-10-14T07:11:19.535Z,61.05
2022-10-14T07:13:47.814Z,49.42
2022-10-14T07:16:16.432Z,58.90
2022-10-14T07:18:44.887Z,56.38
2022-10-14T07:21:13.268Z,53.10
2022-10-14T07:23:43.278Z,58.90
2022-10-14T07:26:11.474Z,54.30
2022-10-14T07:28:39.950Z,52.90
2022-10-14T07:31:13.296Z,51.30
2022-10-14T07:33:41.993Z,49.58
2022-10-14T07:36:15.076Z,46.80
2022-10-14T07:38:48.286Z,56.78
2022-10-14T07:41:21.780Z,45.00
2022-10-14T07:43:51.997Z,53.63
2022-10-14T07:46:29.087Z,58.15
2022-10-14T07:48:58.066Z,49.20
2022-10-14T07:51:27.412Z,49.53
2022-10-14T07:53:58.631Z,58.05
2022-10-14T07:56:27.598Z,54.75
2022-10-14T07:58:56.048Z,49.28
2022-10-14T08:01:24.814Z,53.05
2022-10-14T08:03:53.651Z,49.25
2022-10-14T08:06:22.003Z,49.67
2022-10-14T08:08:50.765Z,46.90
2022-10-14T08:11:24.212Z,49.58
2022-10-14T08:13:53.223Z,45.63
2022-10-14T08:16:23.264Z,48.40
2022-10-14T08:18:52.151Z,48.67
2022-10-14T08:21:22.185Z,45.70
2022-10-14T08:23:50.740Z,47.28
2022-10-14T08:26:25.388Z,57.80
2022-10-14T08:28:53.807Z,45.60
2022-10-14T08:31:22.704Z,59.47
2022-10-14T08:33:51.554Z,55.85
2022-10-14T08:36:21.282Z,50.45
2022-10-14T08:38:49.984Z,42.33
2022-10-14T08:41:35.763Z,42.58
2022-10-14T08:44:14.560Z,50.15
2022-10-14T08:46:51.216Z,45.08
2022-10-14T08:49:29.267Z,54.88
2022-10-14T08:52:02.283Z,46.22
2022-10-14T08:54:38.033Z,45.85
2022-10-14T08:57:14.824Z,41.13
2022-10-14T08:59:43.464Z,42.05
2022-10-14T09:02:25.380Z,37.20
2022-10-14T09:04:54.014Z,41.20
2022-10-14T09:07:22.889Z,42.15
2022-10-14T09:09:54.373Z,39.70
2022-10-14T09:12:27.958Z,35.50
2022-10-14T09:15:05.501Z,40.72
2022-10-14T09:17:38.703Z,42.30
2022-10-14T09:20:19.526Z,30.88
2022-10-14T09:22:58.390Z,42.20
2022-10-14T09:25:27.192Z,35.55
2022-10-14T09:27:57.158Z,34.65
2022-10-14T09:30:25.682Z,40.28
2022-10-14T09:32:56.096Z,36.60
2022-10-14T09:35:27.118Z,43.85
2022-10-14T09:37:55.461Z,36.97
2022-10-14T09:40:30.962Z,35.65
2022-10-14T09:43:05.337Z,41.28
2022-10-14T09:45:51.523Z,35.85
2022-10-14T09:48:32.444Z,33.88
2022-10-14T09:51:03.182Z,41.40
2022-10-14T09:53:33.879Z,38.70
2022-10-14T09:56:04.194Z,38.45
2022-10-14T09:58:40.868Z,43.60
2022-10-14T10:01:16.631Z,42.92
2022-10-14T10:03:46.175Z,48.60
2022-10-14T10:06:17.109Z,40.28
2022-10-14T10:08:57.319Z,43.50
2022-10-14T10:11:30.658Z,45.15
2022-10-14T10:14:16.137Z,47.65
2022-10-14T10:16:44.740Z,57.20
2022-10-14T10:19:28.476Z,43.45
2022-10-14T10:22:16.912Z,49.97
2022-10-14T10:24:46.122Z,37.83
2022-10-14T10:27:22.277Z,37.83
2022-10-14T10:29:52.486Z,38.63
2022-10-14T10:32:31.408Z,35.95
2022-10-14T10:35:20.977Z,35.67
2022-10-14T10:38:06.860Z,38.78
2022-10-14T10:40:40.109Z,29.02
2022-10-14T10:43:36.484Z,28.65
2022-10-14T10:46:30.303Z,26.15
2022-10-14T10:49:07.280Z,28.00
2022-10-14T10:51:41.710Z,27.98
2022-10-14T10:54:25.359Z,29.13
2022-10-14T10:56:57.743Z,30.88
2022-10-14T10:59:38.332Z,27.60
2022-10-14T11:02:38.297Z,24.05
2022-10-14T11:05:13.623Z,25.75
2022-10-14T11:08:11.082Z,26.08
2022-10-14T11:11:08.261Z,28.65
2022-10-14T11:13:48.320Z,27.77
2022-10-14T11:16:26.661Z,27.65
2022-10-14T11:19:07.844Z,25.90
2022-10-14T11:21:46.914Z,23.80
2022-10-14T11:24:26.635Z,25.10
2022-10-14T11:27:05.452Z,25.90
2022-10-14T11:30:09.170Z,24.05
2022-10-14T11:32:48.768Z,28.95
2022-10-14T11:38:25.298Z,22.70
2022-10-14T11:41:02.779Z,30.60
2022-10-14T11:43:43.076Z,28.92
2022-10-14T11:46:13.901Z,28.48
2022-10-14T11:48:47.328Z,29.88
2022-10-14T11:51:22.491Z,24.45
2022-10-14T11:54:01.015Z,26.63
2022-10-14T11:56:46.873Z,28.95
2022-10-14T11:59:31.906Z,27.80
2022-10-14T12:02:27.375Z,27.10
2022-10-14T12:05:04.003Z,30.52
2022-10-14T12:07:40.521Z,30.13
2022-10-14T12:10:21.192Z,33.17
2022-10-14T12:12:52.558Z,30.98
2022-10-14T12:15:24.495Z,28.50
2022-10-14T12:17:55.278Z,33.35
2022-10-14T12:20:33.536Z,40.50
2022-10-14T12:23:04.835Z,38.10
2022-10-14T12:25:44.779Z,33.88
2022-10-14T12:28:16.270Z,38.47
2022-10-14T12:31:35.987Z,36.17
2022-10-14T12:34:38.689Z,32.83
2022-10-14T12:37:46.473Z,31.77
2022-10-14T12:40:26.401Z,39.28
2022-10-14T12:43:19.499Z,35.45
2022-10-14T12:45:58.128Z,30.30
2022-10-14T12:48:29.009Z,42.72
2022-10-14T12:51:09.021Z,39.20
2022-10-14T12:53:40.711Z,36.30
2022-10-14T12:56:11.546Z,32.92
2022-10-14T12:58:54.018Z,30.88
2022-10-14T13:01:22.932Z,31.33
2022-10-14T13:03:56.356Z,34.92
2022-10-14T13:06:36.811Z,30.95
2022-10-14T13:09:20.281Z,32.03
2022-10-14T13:12:28.886Z,32.75
2022-10-14T13:14:59.398Z,29.48
2022-10-14T13:17:43.903Z,35.95
2022-10-14T13:20:53.887Z,32.60
2022-10-14T13:23:32.964Z,30.65
2022-10-14T13:26:12.606Z,27.35
2022-10-14T13:28:50.102Z,28.95
2022-10-14T13:31:26.626Z,30.83
2022-10-14T13:34:02.798Z,33.45
2022-10-14T13:36:38.436Z,35.05
2022-10-14T13:39:07.054Z,28.92
2022-10-14T13:41:35.543Z,26.17
2022-10-14T13:44:05.626Z,29.17
2022-10-14T13:46:38.837Z,28.67
2022-10-14T13:51:53.071Z,23.77
2022-10-14T13:54:23.604Z,23.55
2022-10-14T13:57:28.684Z,24.60
2022-10-14T14:00:37.246Z,27.88
2022-10-14T14:02:47.979Z,21.13
2022-10-14T14:05:26.789Z,25.50
2022-10-14T14:11:14.970Z,19.98
2022-10-14T14:13:54.477Z,17.25
2022-10-14T14:16:29.282Z,22.38
2022-10-14T14:19:10.539Z,24.02
2022-10-14T14:21:39.447Z,22.38
2022-10-14T14:24:18.296Z,24.77
2022-10-14T14:26:56.194Z,20.27
2022-10-14T14:29:29.516Z,18.35
2022-10-14T14:32:06.700Z,17.63
2022-10-14T14:34:39.635Z,18.65
2022-10-14T14:37:40.231Z,15.88
2022-10-14T14:40:08.652Z,17.55
2022-10-14T14:42:40.764Z,17.80
2022-10-14T14:45:17.102Z,19.30
2022-10-14T14:47:47.900Z,27.50
2022-10-14T14:50:30.150Z,22.48
2022-10-14T14:53:04.026Z,18.67
2022-10-14T14:55:45.123Z,22.90
2022-10-14T14:58:24.017Z,19.05
2022-10-14T15:00:54.777Z,21.77
2022-10-14T15:03:28.049Z,27.85
2022-10-14T15:06:00.203Z,22.83
2022-10-14T15:08:30.971Z,18.33
2022-10-14T15:11:00.484Z,23.70
2022-10-14T15:13:45.658Z,19.83
2022-10-14T15:16:14.323Z,22.13
2022-10-14T15:18:44.449Z,17.83
2022-10-14T15:21:19.235Z,20.08
2022-10-14T15:24:03.333Z,16.75
2022-10-14T15:26:35.804Z,18.20
2022-10-14T15:29:16.173Z,18.88
2022-10-14T15:31:46.984Z,20.27
2022-10-14T15:34:20.710Z,21.13
2022-10-14T15:36:52.274Z,18.42
2022-10-14T15:39:21.594Z,22.60
2022-10-14T15:41:50.660Z,26.25
2022-10-14T15:44:19.100Z,27.15
2022-10-14T15:47:05.635Z,22.50
2022-10-14T15:49:40.275Z,29.88
2022-10-14T15:52:15.402Z,29.15
2022-10-14T15:54:45.878Z,29.77
2022-10-14T15:57:16.888Z,27.70
2022-10-14T15:59:49.047Z,32.00
2022-10-14T16:02:21.619Z,34.97
2022-10-14T16:05:20.859Z,30.75
2022-10-14T16:07:41.176Z,32.13
2022-10-14T16:10:13.075Z,32.45
2022-10-14T16:12:42.218Z,38.15
2022-10-14T16:15:23.603Z,42.92
2022-10-14T16:17:53.202Z,32.03
2022-10-14T16:20:23.744Z,34.08
2022-10-14T16:22:52.161Z,35.20
2022-10-14T16:25:25.243Z,35.83
2022-10-14T16:27:53.525Z,40.67
2022-10-14T16:30:22.484Z,36.65
2022-10-14T16:32:51.476Z,38.33
2022-10-14T16:35:20.152Z,38.55
2022-10-14T16:37:50.308Z,38.38
2022-10-14T16:40:18.588Z,35.80
2022-10-14T16:42:46.840Z,35.92
2022-10-14T16:45:15.070Z,37.45
2022-10-14T16:47:43.442Z,35.63
2022-10-14T16:50:12.800Z,40.28
2022-10-14T16:53:00.852Z,39.90
2022-10-14T16:55:33.410Z,30.85
2022-10-14T16:58:01.856Z,36.53
2022-10-14T17:00:30.246Z,33.58
2022-10-14T17:02:58.667Z,31.67
2022-10-14T17:05:27.104Z,38.60
2022-10-14T17:07:55.464Z,34.60
2022-10-14T17:10:24.689Z,37.33
2022-10-14T17:12:55.501Z,35.83
2022-10-14T17:15:24.916Z,33.65
2022-10-14T17:17:54.275Z,38.20
2022-10-14T17:20:22.907Z,38.70
2022-10-14T17:22:51.364Z,45.03
2022-10-14T17:25:20.104Z,38.85
2022-10-14T17:27:49.425Z,30.45
2022-10-14T17:30:19.638Z,34.58
2022-10-14T17:32:48.187Z,33.67
2022-10-14T17:35:17.017Z,29.25
2022-10-14T17:37:48.238Z,41.58
2022-10-14T17:40:16.778Z,35.30
2022-10-14T17:42:45.184Z,37.13
2022-10-14T17:45:13.654Z,36.67
2022-10-14T17:47:43.633Z,34.70
2022-10-14T17:50:12.732Z,34.13
2022-10-14T17:52:41.164Z,32.58
2022-10-14T17:55:10.524Z,40.05
2022-10-14T17:57:39.541Z,36.33
2022-10-14T18:00:09.289Z,36.08
2022-10-14T18:02:40.320Z,36.15
2022-10-14T18:05:10.955Z,36.45
2022-10-14T18:07:39.595Z,39.03
2022-10-14T18:10:10.199Z,34.10
2022-10-14T18:12:39.714Z,35.33
2022-10-14T18:15:09.542Z,36.70
2022-10-14T18:17:39.520Z,39.10
2022-10-14T18:20:08.788Z,34.08
2022-10-14T18:22:38.945Z,31.20
2022-10-14T18:25:08.563Z,30.50
2022-10-14T18:27:37.504Z,37.20
2022-10-14T18:30:07.478Z,31.75
2022-10-14T18:32:37.078Z,28.27
2022-10-14T18:35:06.741Z,34.28
2022-10-14T18:37:35.251Z,26.77
2022-10-14T18:40:05.558Z,25.98
2022-10-14T18:42:34.101Z,34.78
2022-10-14T18:45:02.577Z,33.92
2022-10-14T18:47:31.343Z,30.83
2022-10-14T18:50:00.409Z,30.35
2022-10-14T18:52:30.038Z,32.15
2022-10-14T18:54:59.060Z,32.80
2022-10-14T18:57:28.844Z,30.23
2022-10-14T18:59:58.269Z,30.13
2022-10-14T19:02:26.634Z,27.42
2022-10-14T19:04:56.106Z,24.88
2022-10-14T19:07:24.573Z,27.20
2022-10-14T19:09:55.588Z,30.75
2022-10-14T19:12:44.719Z,24.88
2022-10-14T19:15:14.409Z,25.00
2022-10-14T19:17:43.738Z,23.98
2022-10-14T19:20:12.394Z,33.08
2022-10-14T19:22:45.017Z,25.95
2022-10-14T19:25:13.680Z,26.75
2022-10-14T19:27:42.233Z,25.60
2022-10-14T19:30:11.834Z,27.52
2022-10-14T19:32:42.181Z,26.00
2022-10-14T19:35:10.968Z,20.60
2022-10-14T19:37:39.391Z,25.75
2022-10-14T19:40:08.910Z,26.50
2022-10-14T19:42:37.601Z,26.42
2022-10-14T19:45:07.548Z,28.08
2022-10-14T19:47:35.996Z,29.52
2022-10-14T19:50:07.057Z,25.75
2022-10-14T19:52:35.685Z,25.33
2022-10-14T19:55:04.220Z,29.00
2022-10-14T19:57:32.739Z,30.10
2022-10-14T20:00:01.415Z,27.92
2022-10-14T20:02:32.980Z,27.98
2022-10-14T20:05:01.351Z,24.00
2022-10-14T20:07:31.338Z,28.70
2022-10-14T20:10:02.587Z,28.67
2022-10-14T20:12:31.732Z,29.67
2022-10-14T20:15:00.239Z,28.58
2022-10-14T20:17:28.942Z,28.55
2022-10-14T20:19:57.489Z,26.10
2022-10-14T20:22:26.262Z,31.02
2022-10-14T20:24:56.132Z,32.25
2022-10-14T20:27:24.644Z,24.55
2022-10-14T20:29:53.603Z,30.67
2022-10-14T20:32:22.585Z,29.67
2022-10-14T20:34:51.182Z,28.10
2022-10-14T20:37:22.976Z,32.25
2022-10-14T20:39:55.611Z,30.92
2022-10-14T20:42:24.164Z,38.95
2022-10-14T20:44:52.635Z,31.35
2022-10-14T20:47:21.254Z,32.65
2022-10-14T20:49:50.167Z,25.27
2022-10-14T20:52:18.544Z,32.25
2022-10-14T20:54:47.036Z,29.33
2022-10-14T20:57:16.711Z,28.52
2022-10-14T20:59:45.160Z,26.50
2022-10-14T21:02:17.114Z,28.05
2022-10-14T21:04:48.713Z,28.98
2022-10-14T21:07:18.099Z,28.98
2022-10-14T21:09:46.609Z,23.83
2022-10-14T21:12:16.918Z,24.25
2022-10-14T21:14:46.102Z,26.75
2022-10-14T21:17:14.682Z,26.38
2022-10-14T21:19:43.498Z,29.52
2022-10-14T21:22:12.024Z,27.27
2022-10-14T21:24:41.388Z,29.77
2022-10-14T21:27:10.001Z,25.38
2022-10-14T21:29:40.052Z,29.92
2022-10-14T21:32:09.180Z,30.23
2022-10-14T21:34:37.792Z,30.08
2022-10-14T21:37:06.182Z,29.35
2022-10-14T21:39:34.494Z,25.40
2022-10-14T21:42:02.814Z,25.90
2022-10-14T21:44:31.221Z,25.27
2022-10-14T21:47:01.202Z,25.15
2022-10-14T21:49:29.796Z,23.27
2022-10-14T21:51:58.337Z,25.83
2022-10-14T21:54:26.998Z,26.08
2022-10-14T21:59:25.155Z,26.52
2022-10-14T22:01:56.580Z,35.10
2022-10-14T22:04:27.816Z,24.25
2022-10-14T22:06:56.394Z,23.60
2022-10-14T22:09:25.013Z,24.40
2022-10-14T22:11:54.415Z,30.98
2022-10-14T22:14:22.906Z,25.92
2022-10-14T22:16:51.430Z,25.05
2022-10-14T22:19:19.969Z,25.33
2022-10-14T22:21:50.346Z,30.70
2022-10-14T22:24:18.810Z,26.33
2022-10-14T22:26:47.218Z,25.50
2022-10-14T22:29:16.997Z,21.08
2022-10-14T22:31:46.057Z,25.63
2022-10-14T22:34:16.616Z,29.30
2022-10-14T22:36:46.174Z,21.35
2022-10-14T22:39:18.184Z,20.00
2022-10-14T22:41:46.957Z,23.27
2022-10-14T22:44:15.613Z,19.70
2022-10-14T22:46:44.102Z,20.85
2022-10-14T22:49:12.475Z,25.25
2022-10-14T22:51:41.632Z,25.02
2022-10-14T22:54:10.607Z,22.85
2022-10-14T22:56:40.580Z,21.15
2022-10-14T22:59:11.817Z,18.98
2022-10-14T23:01:43.340Z,20.63
2022-10-14T23:04:12.560Z,16.50
2022-10-14T23:06:43.766Z,18.45
2022-10-14T23:09:12.354Z,19.55
2022-10-14T23:11:42.624Z,17.73
2022-10-14T23:14:11.300Z,19.25
2022-10-14T23:16:40.214Z,17.23
2022-10-14T23:19:09.231Z,20.45
2022-10-14T23:21:38.756Z,18.83
2022-10-14T23:24:09.584Z,18.13
2022-10-14T23:26:38.693Z,21.05
2022-10-14T23:29:11.401Z,18.58
2022-10-14T23:31:40.907Z,21.73
2022-10-14T23:34:12.869Z,21.98
2022-10-14T23:36:41.844Z,24.45
2022-10-14T23:39:10.526Z,25.75
2022-10-14T23:41:39.188Z,26.98
2022-10-14T23:44:08.961Z,22.77
2022-10-14T23:46:37.271Z,23.60
2022-10-14T23:49:21.171Z,26.30
2022-10-14T23:51:53.787Z,21.27
2022-10-14T23:54:22.579Z,24.33
2022-10-14T23:56:50.966Z,24.90
2022-10-14T23:59:21.057Z,26.10
